createdAt,value
2017-09-14T00:01:28.531Z,69.53
2017-09-14T00:03:58.001Z,69.44
2017-09-14T00:06:26.351Z,69.37
2017-09-14T00:08:54.709Z,68.88
2017-09-14T00:11:24.094Z,69.08
2017-09-14T00:13:52.490Z,69.06
2017-09-14T00:16:22.024Z,69.44
2017-09-14T00:18:50.902Z,69.30
2017-09-14T00:21:20.785Z,69.47
2017-09-14T00:23:49.924Z,68.99
2017-09-14T00:26:19.594Z,69.30
2017-09-14T00:28:48.793Z,69.64
2017-09-14T00:31:17.870Z,70.17
2017-09-14T00:33:46.502Z,70.14
2017-09-14T00:36:14.897Z,69.65
2017-09-14T00:38:43.378Z,69.49
2017-09-14T00:41:12.179Z,70.37
2017-09-14T00:43:40.707Z,69.69
2017-09-14T00:46:09.062Z,70.58
2017-09-14T00:48:38.020Z,70.35
2017-09-14T00:51:07.980Z,71.41
2017-09-14T00:53:36.342Z,71.26
2017-09-14T00:56:05.062Z,71.86
2017-09-14T00:58:33.467Z,71.57
2017-09-14T01:01:01.845Z,71.57
2017-09-14T01:03:31.906Z,72.38
2017-09-14T01:06:01.217Z,72.17
2017-09-14T01:08:29.581Z,72.84
2017-09-14T01:10:58.484Z,72.66
2017-09-14T01:13:27.324Z,73.32
2017-09-14T01:15:55.679Z,73.19
2017-09-14T01:18:25.354Z,72.77
2017-09-14T01:20:54.430Z,72.28
2017-09-14T01:23:23.548Z,71.41
2017-09-14T01:25:52.441Z,71.43
2017-09-14T01:28:21.493Z,72.68
2017-09-14T01:30:50.655Z,72.47
2017-09-14T01:33:20.945Z,72.59
2017-09-14T01:35:49.543Z,73.62
2017-09-14T01:38:17.926Z,73.91
2017-09-14T01:40:47.415Z,73.38
2017-09-14T01:43:15.803Z,73.22
2017-09-14T01:45:44.384Z,74.27
2017-09-14T01:48:13.075Z,74.06
2017-09-14T01:50:42.907Z,74.19
2017-09-14T01:53:11.254Z,74.02
2017-09-14T01:55:41.176Z,74.32
2017-09-14T01:58:09.497Z,74.98
2017-09-14T02:00:38.625Z,74.38
2017-09-14T02:03:07.281Z,74.12
2017-09-14T02:05:35.859Z,74.52
2017-09-14T02:08:05.020Z,75.30
2017-09-14T02:10:33.775Z,74.77
2017-09-14T02:13:02.919Z,73.67
2017-09-14T02:15:31.281Z,73.53
2017-09-14T02:18:01.598Z,74.54
2017-09-14T02:20:29.953Z,74.80
2017-09-14T02:22:59.197Z,75.42
2017-09-14T02:25:28.615Z,75.19
2017-09-14T02:27:56.985Z,75.13
2017-09-14T02:30:25.426Z,74.79
2017-09-14T02:32:54.360Z,75.26
2017-09-14T02:35:22.732Z,74.57
2017-09-14T02:37:52.705Z,74.63
2017-09-14T02:40:22.380Z,75.63
2017-09-14T02:42:51.415Z,75.85
2017-09-14T02:45:19.778Z,75.53
2017-09-14T02:47:49.812Z,75.74
2017-09-14T02:50:19.185Z,75.88
2017-09-14T02:52:47.539Z,75.41
2017-09-14T02:55:17.719Z,75.30
2017-09-14T02:57:48.223Z,75.14
2017-09-14T03:00:16.559Z,76.46
2017-09-14T03:02:45.239Z,76.02
2017-09-14T03:05:13.584Z,76.07
2017-09-14T03:07:43.018Z,75.70
2017-09-14T03:10:11.722Z,75.78
2017-09-14T03:12:40.086Z,75.85
2017-09-14T03:15:08.447Z,76.06
2017-09-14T03:17:37.077Z,76.15
2017-09-14T03:20:05.428Z,76.05
2017-09-14T03:22:33.778Z,76.36
2017-09-14T03:25:02.486Z,76.06
2017-09-14T03:27:31.728Z,76.65
2017-09-14T03:30:00.893Z,77.29
2017-09-14T03:32:29.606Z,77.38
2017-09-14T03:34:58.322Z,77.19
2017-09-14T03:37:27.478Z,78.16
2017-09-14T03:39:56.793Z,77.12
2017-09-14T03:42:25.216Z,75.94
2017-09-14T03:44:53.605Z,76.24
2017-09-14T03:47:22.939Z,77.09
2017-09-14T03:49:51.392Z,76.95
2017-09-14T03:52:19.975Z,77.10
2017-09-14T03:54:49.782Z,77.81
2017-09-14T03:57:18.948Z,76.75
2017-09-14T03:59:47.293Z,77.50
2017-09-14T04:02:16.011Z,77.09
2017-09-14T04:04:44.642Z,76.11
2017-09-14T04:07:12.993Z,76.72
2017-09-14T04:09:42.353Z,77.90
2017-09-14T04:12:10.943Z,77.58
2017-09-14T04:14:40.180Z,77.37
2017-09-14T04:17:09.794Z,77.86
2017-09-14T04:19:39.038Z,77.52
2017-09-14T04:22:07.388Z,77.53
2017-09-14T04:24:36.903Z,76.70
2017-09-14T04:27:05.481Z,77.45
2017-09-14T04:29:33.858Z,76.79
2017-09-14T04:32:02.855Z,77.04
2017-09-14T04:34:31.228Z,77.75
2017-09-14T04:36:59.577Z,78.63
2017-09-14T04:39:29.027Z,78.42
2017-09-14T04:41:57.389Z,78.17
2017-09-14T04:44:26.323Z,77.62
2017-09-14T04:46:55.052Z,77.56
2017-09-14T04:49:23.402Z,77.57
2017-09-14T04:51:52.763Z,77.84
2017-09-14T04:54:22.363Z,78.27
2017-09-14T04:56:50.717Z,77.37
2017-09-14T04:59:19.822Z,77.02
2017-09-14T05:01:49.437Z,76.83
2017-09-14T05:04:20.368Z,77.70
2017-09-14T05:06:48.740Z,76.56
2017-09-14T05:09:18.163Z,76.31
2017-09-14T05:11:46.531Z,76.72
2017-09-14T05:14:15.647Z,76.62
2017-09-14T05:16:45.482Z,77.04
2017-09-14T05:19:13.831Z,77.41
2017-09-14T05:21:42.181Z,76.98
2017-09-14T05:24:12.221Z,76.60
2017-09-14T05:26:40.892Z,76.44
2017-09-14T05:29:10.004Z,75.60
2017-09-14T05:31:38.691Z,76.53
2017-09-14T05:34:07.052Z,77.39
2017-09-14T05:36:35.408Z,75.97
2017-09-14T05:39:04.313Z,75.62
2017-09-14T05:41:33.546Z,75.07
2017-09-14T05:44:01.901Z,75.47
2017-09-14T05:46:31.325Z,74.68
2017-09-14T05:49:00.392Z,74.73
2017-09-14T05:51:28.785Z,74.77
2017-09-14T05:53:58.220Z,74.02
2017-09-14T05:56:26.570Z,74.46
2017-09-14T05:58:56.289Z,74.09
2017-09-14T06:01:25.028Z,72.17
2017-09-14T06:03:54.110Z,70.13
2017-09-14T06:06:22.500Z,69.51
2017-09-14T06:08:51.206Z,69.19
2017-09-14T06:11:20.137Z,69.00
2017-09-14T06:13:48.488Z,69.08
2017-09-14T06:16:17.474Z,65.40
2017-09-14T06:18:45.831Z,65.21
2017-09-14T06:21:14.216Z,66.98
2017-09-14T06:23:43.058Z,68.88
2017-09-14T06:26:11.410Z,69.15
2017-09-14T06:28:39.766Z,69.97
2017-09-14T06:31:09.958Z,68.78
2017-09-14T06:33:38.290Z,68.24
2017-09-14T06:36:06.665Z,67.99
2017-09-14T06:38:35.329Z,66.35
2017-09-14T06:41:04.441Z,63.13
2017-09-14T06:43:32.797Z,60.72
2017-09-14T06:46:01.500Z,59.43
2017-09-14T06:48:30.640Z,59.46
2017-09-14T06:50:59.828Z,56.93
2017-09-14T06:53:28.882Z,57.14
2017-09-14T06:55:58.032Z,56.86
2017-09-14T06:58:26.384Z,55.33
2017-09-14T07:00:55.224Z,56.28
2017-09-14T07:03:23.570Z,54.72
2017-09-14T07:05:52.200Z,52.99
2017-09-14T07:08:22.536Z,49.13
2017-09-14T07:10:50.919Z,51.38
2017-09-14T07:13:20.037Z,50.38
2017-09-14T07:15:48.707Z,50.26
2017-09-14T07:18:19.343Z,50.23
2017-09-14T07:20:49.822Z,48.13
2017-09-14T07:23:18.301Z,48.56
2017-09-14T07:25:46.661Z,49.39
2017-09-14T07:28:15.550Z,47.70
2017-09-14T07:30:43.905Z,48.56
2017-09-14T07:33:12.261Z,46.39
2017-09-14T07:35:41.192Z,46.49
2017-09-14T07:38:10.076Z,52.35
2017-09-14T07:40:39.262Z,51.07
2017-09-14T07:43:08.478Z,52.76
2017-09-14T07:45:37.613Z,47.23
2017-09-14T07:48:05.986Z,50.42
2017-09-14T07:50:35.067Z,52.78
2017-09-14T07:53:03.513Z,55.37
2017-09-14T07:55:31.896Z,57.64
2017-09-14T07:58:01.334Z,58.48
2017-09-14T08:00:29.679Z,55.39
2017-09-14T08:02:58.000Z,56.86
2017-09-14T08:05:26.785Z,55.68
2017-09-14T08:07:55.155Z,53.17
2017-09-14T08:10:23.543Z,52.81
2017-09-14T08:12:52.647Z,53.00
2017-09-14T08:15:21.661Z,47.57
2017-09-14T08:17:50.013Z,46.99
2017-09-14T08:20:18.685Z,43.81
2017-09-14T08:22:47.803Z,39.69
2017-09-14T08:25:17.087Z,41.79
2017-09-14T08:27:46.591Z,42.57
2017-09-14T08:30:15.682Z,45.31
2017-09-14T08:32:44.795Z,48.08
2017-09-14T08:35:14.594Z,45.89
2017-09-14T08:37:42.943Z,43.77
2017-09-14T08:40:11.282Z,45.22
2017-09-14T08:42:39.907Z,46.54
2017-09-14T08:45:08.270Z,47.34
2017-09-14T08:47:37.448Z,46.73
2017-09-14T08:50:06.110Z,45.32
2017-09-14T08:52:34.475Z,45.03
2017-09-14T08:55:05.671Z,45.62
2017-09-14T08:57:35.237Z,45.33
2017-09-14T09:00:03.639Z,44.34
2017-09-14T09:02:32.739Z,41.97
2017-09-14T09:05:01.370Z,44.00
2017-09-14T09:07:32.090Z,43.20
2017-09-14T09:10:00.444Z,38.82
2017-09-14T09:12:29.174Z,34.81
2017-09-14T09:14:58.320Z,32.61
2017-09-14T09:17:26.667Z,35.10
2017-09-14T09:19:56.512Z,34.19
2017-09-14T09:22:24.890Z,33.25
2017-09-14T09:24:53.475Z,30.56
2017-09-14T09:27:22.089Z,30.94
2017-09-14T09:29:50.442Z,28.89
2017-09-14T09:32:18.778Z,30.33
2017-09-14T09:34:48.253Z,30.46
2017-09-14T09:37:17.014Z,31.62
2017-09-14T09:39:45.363Z,33.43
2017-09-14T09:42:14.367Z,36.14
2017-09-14T09:44:42.760Z,34.16
2017-09-14T09:47:11.879Z,34.20
2017-09-14T09:49:40.673Z,35.22
2017-09-14T09:52:11.831Z,32.85
2017-09-14T09:54:40.200Z,31.12
2017-09-14T09:57:09.851Z,29.83
2017-09-14T09:59:38.287Z,33.00
2017-09-14T10:02:06.638Z,30.54
2017-09-14T10:04:35.620Z,30.52
2017-09-14T10:07:03.988Z,30.77
2017-09-14T10:09:32.340Z,32.13
2017-09-14T10:12:00.973Z,31.28
2017-09-14T10:14:30.228Z,31.90
2017-09-14T10:16:59.382Z,33.65
2017-09-14T10:19:29.891Z,36.10
2017-09-14T10:21:58.224Z,31.94
2017-09-14T10:24:27.330Z,28.80
2017-09-14T10:26:57.265Z,31.94
2017-09-14T10:29:26.381Z,32.85
2017-09-14T10:31:54.786Z,36.49
2017-09-14T10:34:23.762Z,40.24
2017-09-14T10:36:53.051Z,41.36
2017-09-14T10:39:22.200Z,39.05
2017-09-14T10:41:51.152Z,33.11
2017-09-14T10:44:19.515Z,35.41
2017-09-14T10:46:47.898Z,33.66
2017-09-14T10:49:16.601Z,33.11
2017-09-14T10:51:46.790Z,36.35
2017-09-14T10:54:15.933Z,40.28
2017-09-14T10:56:44.614Z,40.84
2017-09-14T10:59:12.986Z,41.59
2017-09-14T11:01:42.106Z,40.93
2017-09-14T11:04:11.546Z,40.94
2017-09-14T11:06:40.738Z,42.17
2017-09-14T11:09:09.110Z,40.03
2017-09-14T11:11:38.946Z,35.65
2017-09-14T11:14:07.300Z,32.45
2017-09-14T11:16:36.438Z,32.00
2017-09-14T11:19:05.116Z,30.14
2017-09-14T11:21:33.486Z,29.77
2017-09-14T11:24:01.851Z,28.62
2017-09-14T11:26:31.484Z,27.82
2017-09-14T11:28:59.815Z,27.44
2017-09-14T11:31:28.174Z,24.00
2017-09-14T11:33:57.119Z,23.76
2017-09-14T11:36:26.000Z,24.53
2017-09-14T11:38:55.749Z,22.98
2017-09-14T11:41:24.415Z,23.17
2017-09-14T11:43:52.751Z,23.81
2017-09-14T11:46:21.098Z,23.66
2017-09-14T11:48:49.874Z,22.89
2017-09-14T11:51:18.273Z,24.27
2017-09-14T11:53:46.601Z,21.44
2017-09-14T11:56:16.525Z,23.82
2017-09-14T11:58:45.862Z,23.14
2017-09-14T12:01:15.180Z,25.99
2017-09-14T12:03:44.861Z,24.52
2017-09-14T12:06:13.199Z,24.52
2017-09-14T12:08:42.345Z,27.11
2017-09-14T12:11:11.916Z,26.55
2017-09-14T12:13:40.743Z,27.80
2017-09-14T12:16:09.176Z,25.66
2017-09-14T12:18:38.609Z,25.40
2017-09-14T12:21:06.967Z,28.75
2017-09-14T12:23:36.655Z,30.42
2017-09-14T12:26:05.403Z,30.45
2017-09-14T12:28:33.729Z,30.07
2017-09-14T12:31:02.081Z,29.42
2017-09-14T12:33:30.719Z,27.97
2017-09-14T12:35:59.093Z,24.78
2017-09-14T12:38:30.014Z,25.43
2017-09-14T12:40:59.479Z,29.58
2017-09-14T12:43:28.208Z,28.20
2017-09-14T12:45:57.580Z,29.34
2017-09-14T12:48:26.273Z,33.04
2017-09-14T12:50:55.596Z,35.73
2017-09-14T12:53:23.983Z,35.88
2017-09-14T12:55:52.660Z,36.23
2017-09-14T12:58:21.778Z,36.58
2017-09-14T13:00:50.940Z,36.50
2017-09-14T13:03:19.988Z,35.12
2017-09-14T13:05:48.619Z,31.64
2017-09-14T13:08:16.989Z,29.44
2017-09-14T13:10:45.681Z,27.39
2017-09-14T13:13:14.056Z,27.71
2017-09-14T13:15:42.432Z,29.58
2017-09-14T13:18:11.220Z,28.75
2017-09-14T13:20:39.683Z,26.76
2017-09-14T13:23:08.800Z,26.63
2017-09-14T13:25:38.198Z,30.84
2017-09-14T13:28:06.730Z,29.71
2017-09-14T13:30:35.954Z,32.57
2017-09-14T13:33:04.893Z,34.30
2017-09-14T13:35:35.088Z,35.16
2017-09-14T13:38:03.525Z,33.61
2017-09-14T13:40:34.186Z,33.21
2017-09-14T13:43:02.574Z,34.03
2017-09-14T13:45:30.930Z,33.02
2017-09-14T13:48:01.184Z,31.50
2017-09-14T13:50:29.680Z,31.48
2017-09-14T13:52:58.863Z,30.64
2017-09-14T13:55:27.915Z,31.50
2017-09-14T13:57:57.097Z,30.69
2017-09-14T14:00:25.458Z,30.05
2017-09-14T14:02:54.172Z,33.88
2017-09-14T14:05:23.282Z,37.47
2017-09-14T14:07:52.467Z,40.75
2017-09-14T14:10:21.461Z,41.00
2017-09-14T14:12:50.570Z,40.85
2017-09-14T14:15:19.779Z,41.51
2017-09-14T14:17:48.679Z,41.23
2017-09-14T14:20:17.438Z,41.94
2017-09-14T14:22:46.581Z,41.75
2017-09-14T14:25:15.642Z,42.83
2017-09-14T14:27:44.803Z,42.18
2017-09-14T14:30:13.139Z,44.16
2017-09-14T14:32:42.036Z,44.25
2017-09-14T14:35:10.413Z,44.03
2017-09-14T14:37:38.792Z,43.62
2017-09-14T14:40:08.187Z,43.34
2017-09-14T14:42:36.546Z,43.47
2017-09-14T14:45:04.876Z,44.91
2017-09-14T14:47:33.814Z,45.44
2017-09-14T14:50:04.276Z,44.57
2017-09-14T14:52:33.716Z,45.11
2017-09-14T14:55:04.651Z,44.79
2017-09-14T14:57:33.011Z,44.95
2017-09-14T15:00:01.370Z,44.95
2017-09-14T15:02:30.845Z,46.14
2017-09-14T15:04:59.973Z,46.48
2017-09-14T15:07:28.332Z,46.67
2017-09-14T15:09:56.931Z,46.84
2017-09-14T15:12:25.831Z,46.73
2017-09-14T15:14:54.168Z,46.97
2017-09-14T15:17:23.778Z,47.06
2017-09-14T15:19:53.120Z,47.43
2017-09-14T15:22:22.396Z,49.50
2017-09-14T15:24:52.014Z,57.28
2017-09-14T15:27:21.180Z,59.72
2017-09-14T15:29:50.277Z,59.88
2017-09-14T15:32:19.711Z,60.41
2017-09-14T15:34:48.089Z,61.03
2017-09-14T15:37:22.206Z,62.75
2017-09-14T15:39:56.706Z,63.56
2017-09-14T15:42:31.557Z,63.62
2017-09-14T15:45:05.385Z,64.37
2017-09-14T15:47:34.589Z,63.20
2017-09-14T15:50:08.344Z,63.46
2017-09-14T15:52:39.091Z,64.19
2017-09-14T15:55:07.502Z,64.77
2017-09-14T15:57:35.838Z,64.60
2017-09-14T16:00:05.454Z,63.21
2017-09-14T16:02:34.793Z,64.40
2017-09-14T16:05:03.865Z,64.08
2017-09-14T16:07:32.643Z,63.58
2017-09-14T16:10:00.982Z,62.74
2017-09-14T16:12:29.349Z,63.17
2017-09-14T16:14:58.330Z,63.08
2017-09-14T16:17:26.694Z,62.56
2017-09-14T16:19:55.048Z,62.26
2017-09-14T16:22:23.813Z,62.76
2017-09-14T16:24:53.715Z,63.11
2017-09-14T16:27:22.098Z,63.23
2017-09-14T16:29:51.065Z,63.16
2017-09-14T16:32:20.273Z,62.51
2017-09-14T16:34:49.514Z,62.09
2017-09-14T16:37:19.626Z,62.20
2017-09-14T16:39:47.989Z,62.68
2017-09-14T16:42:16.610Z,63.28
2017-09-14T16:44:45.388Z,64.47
2017-09-14T16:47:13.770Z,63.76
2017-09-14T16:49:46.266Z,63.19
2017-09-14T16:52:14.668Z,64.55
2017-09-14T16:54:43.027Z,63.07
2017-09-14T16:57:11.800Z,62.61
2017-09-14T16:59:41.980Z,62.30
2017-09-14T17:02:11.424Z,61.14
2017-09-14T17:04:40.841Z,60.02
2017-09-14T17:07:09.208Z,61.29
2017-09-14T17:09:39.039Z,61.88
2017-09-14T17:12:08.747Z,61.15
2017-09-14T17:14:37.115Z,61.90
2017-09-14T17:17:06.274Z,62.26
2017-09-14T17:19:35.459Z,61.95
2017-09-14T17:22:03.808Z,61.82
2017-09-14T17:24:32.159Z,62.51
2017-09-14T17:27:01.577Z,62.38
2017-09-14T17:29:29.956Z,62.46
2017-09-14T17:31:58.299Z,63.07
2017-09-14T17:34:26.922Z,62.89
2017-09-14T17:36:55.578Z,62.84
2017-09-14T17:39:24.107Z,64.13
2017-09-14T17:41:52.931Z,63.49
2017-09-14T17:44:22.115Z,63.20
2017-09-14T17:46:51.385Z,63.37
2017-09-14T17:49:20.023Z,63.16
2017-09-14T17:51:48.387Z,63.55
2017-09-14T17:54:17.326Z,63.51
2017-09-14T17:56:46.801Z,63.71
2017-09-14T17:59:16.113Z,64.62
2017-09-14T18:01:44.471Z,64.38
2017-09-14T18:04:13.297Z,65.15
2017-09-14T18:06:43.470Z,64.55
2017-09-14T18:09:12.052Z,63.98
2017-09-14T18:11:43.581Z,64.44
2017-09-14T18:14:11.931Z,63.90
2017-09-14T18:16:41.042Z,63.95
2017-09-14T18:19:09.711Z,64.72
2017-09-14T18:21:38.875Z,64.91
2017-09-14T18:24:07.560Z,65.09
2017-09-14T18:26:36.268Z,64.58
2017-09-14T18:29:05.325Z,65.53
2017-09-14T18:31:34.607Z,65.22
2017-09-14T18:34:03.274Z,64.39
2017-09-14T18:36:32.747Z,65.26
2017-09-14T18:39:01.105Z,67.15
2017-09-14T18:41:30.669Z,66.92
2017-09-14T18:44:01.978Z,66.51
2017-09-14T18:46:30.345Z,65.82
2017-09-14T18:48:59.225Z,65.64
2017-09-14T18:51:28.410Z,65.06
2017-09-14T18:53:58.481Z,65.12
2017-09-14T18:56:27.978Z,65.35
2017-09-14T18:58:57.785Z,66.84
2017-09-14T19:01:26.123Z,67.09
2017-09-14T19:03:55.674Z,66.58
2017-09-14T19:06:24.040Z,67.34
2017-09-14T19:08:52.428Z,67.76
2017-09-14T19:11:21.321Z,69.04
2017-09-14T19:13:51.494Z,69.26
2017-09-14T19:16:22.667Z,69.35
2017-09-14T19:18:51.068Z,68.87
2017-09-14T19:21:19.476Z,69.16
2017-09-14T19:23:48.123Z,70.36
2017-09-14T19:26:17.611Z,69.61
2017-09-14T19:28:47.118Z,69.78
2017-09-14T19:31:16.913Z,70.35
2017-09-14T19:33:46.176Z,70.88
2017-09-14T19:36:15.599Z,71.36
2017-09-14T19:38:45.767Z,70.96
2017-09-14T19:41:15.133Z,71.10
2017-09-14T19:43:44.326Z,71.03
2017-09-14T19:46:14.113Z,72.22
2017-09-14T19:48:42.698Z,72.39
2017-09-14T19:51:11.841Z,71.93
2017-09-14T19:53:42.190Z,71.45
2017-09-14T19:56:10.518Z,71.58
2017-09-14T19:58:39.786Z,71.21
2017-09-14T20:01:09.366Z,71.67
2017-09-14T20:03:38.123Z,71.72
2017-09-14T20:06:07.273Z,72.20
2017-09-14T20:08:36.040Z,72.12
2017-09-14T20:11:05.820Z,72.70
2017-09-14T20:13:34.278Z,72.64
2017-09-14T20:16:04.864Z,72.94
2017-09-14T20:18:33.256Z,73.22
2017-09-14T20:21:01.624Z,72.77
2017-09-14T20:23:31.249Z,73.20
2017-09-14T20:25:59.640Z,73.45
2017-09-14T20:28:28.384Z,73.30
2017-09-14T20:30:57.678Z,72.73
2017-09-14T20:33:26.370Z,73.92
2017-09-14T20:35:54.794Z,74.24
2017-09-14T20:38:23.736Z,73.64
2017-09-14T20:40:52.161Z,73.05
2017-09-14T20:43:20.521Z,73.17
2017-09-14T20:45:49.202Z,73.58
2017-09-14T20:48:17.618Z,73.06
2017-09-14T20:50:50.152Z,73.41
2017-09-14T20:53:19.440Z,73.45
2017-09-14T20:55:48.085Z,73.85
2017-09-14T20:58:16.469Z,73.07
2017-09-14T21:00:46.022Z,73.21
2017-09-14T21:03:14.415Z,73.30
2017-09-14T21:05:42.782Z,73.53
2017-09-14T21:08:11.682Z,73.48
2017-09-14T21:10:40.065Z,73.52
2017-09-14T21:13:08.473Z,73.32
2017-09-14T21:15:37.957Z,74.75
2017-09-14T21:18:06.763Z,74.64
2017-09-14T21:20:35.118Z,74.02
2017-09-14T21:23:03.826Z,73.63
2017-09-14T21:25:32.579Z,73.73
2017-09-14T21:28:00.978Z,75.19
2017-09-14T21:30:30.689Z,74.41
2017-09-14T21:32:59.061Z,73.68
2017-09-14T21:35:27.456Z,73.77
2017-09-14T21:37:56.320Z,73.78
2017-09-14T21:40:24.744Z,73.16
2017-09-14T21:42:53.982Z,73.20
2017-09-14T21:45:23.594Z,73.61
2017-09-14T21:47:52.003Z,73.70
2017-09-14T21:50:20.367Z,73.81
2017-09-14T21:52:49.076Z,74.62
2017-09-14T21:55:17.455Z,75.10
2017-09-14T21:57:45.854Z,75.55
2017-09-14T22:00:14.535Z,76.10
2017-09-14T22:02:43.022Z,75.62
2017-09-14T22:05:11.392Z,76.10
2017-09-14T22:07:40.213Z,76.01
2017-09-14T22:10:09.376Z,75.05
2017-09-14T22:12:38.476Z,74.99
2017-09-14T22:15:08.669Z,75.18
2017-09-14T22:17:37.674Z,76.08
2017-09-14T22:20:06.044Z,76.08
2017-09-14T22:22:34.781Z,76.31
2017-09-14T22:25:03.164Z,76.78
2017-09-14T22:27:31.560Z,76.22
2017-09-14T22:30:00.372Z,76.16
2017-09-14T22:32:28.781Z,75.91
2017-09-14T22:34:57.134Z,76.28
2017-09-14T22:37:26.074Z,77.24
2017-09-14T22:39:54.673Z,77.12
2017-09-14T22:42:23.836Z,76.75
2017-09-14T22:44:53.010Z,77.34
2017-09-14T22:47:21.439Z,76.97
2017-09-14T22:49:50.979Z,77.36
2017-09-14T22:52:19.697Z,77.07
2017-09-14T22:54:48.309Z,77.83
2017-09-14T22:57:17.375Z,77.58
2017-09-14T22:59:46.029Z,77.20
2017-09-14T23:02:14.428Z,77.15
2017-09-14T23:04:42.820Z,77.15
2017-09-14T23:07:11.506Z,77.52
2017-09-14T23:09:40.871Z,76.94
2017-09-14T23:12:09.930Z,76.99
2017-09-14T23:14:39.069Z,77.97
2017-09-14T23:17:07.431Z,77.90
2017-09-14T23:19:37.332Z,77.93
2017-09-14T23:22:06.179Z,77.31
2017-09-14T23:24:34.541Z,77.12
2017-09-14T23:27:03.762Z,77.37
2017-09-14T23:29:33.562Z,77.02
2017-09-14T23:32:03.172Z,77.09
2017-09-14T23:34:31.624Z,76.71
2017-09-14T23:37:00.446Z,76.95
2017-09-14T23:39:29.543Z,77.65
2017-09-14T23:41:58.778Z,77.24
2017-09-14T23:44:27.488Z,77.02
2017-09-14T23:46:55.861Z,77.78
2017-09-14T23:49:24.270Z,77.66
2017-09-14T23:51:52.959Z,77.01
2017-09-14T23:54:24.252Z,77.54
2017-09-14T23:56:54.119Z,77.75
2017-09-14T23:59:23.203Z,77.77
